createdAt,value
2018-12-25T00:01:16.122Z,2.23
2018-12-25T00:03:45.292Z,2.24
2018-12-25T00:06:14.358Z,2.25
2018-12-25T00:08:43.415Z,2.26
2018-12-25T00:11:12.507Z,2.25
2018-12-25T00:13:41.565Z,2.24
2018-12-25T00:16:10.631Z,2.25
2018-12-25T00:18:39.723Z,2.24
2018-12-25T00:21:08.781Z,2.24
2018-12-25T00:23:37.841Z,2.26
2018-12-25T00:26:07.022Z,2.24
2018-12-25T00:28:36.082Z,2.24
2018-12-25T00:31:05.144Z,2.25
2018-12-25T00:33:34.232Z,2.24
2018-12-25T00:36:03.296Z,2.24
2018-12-25T00:38:32.354Z,2.24
2018-12-25T00:41:01.489Z,2.24
2018-12-25T00:43:30.547Z,2.25
2018-12-25T00:45:59.605Z,2.26
2018-12-25T00:48:29.148Z,2.27
2018-12-25T00:50:58.215Z,2.29
2018-12-25T00:53:27.285Z,2.30
2018-12-25T00:55:56.450Z,2.29
2018-12-25T00:58:25.511Z,2.30
2018-12-25T01:00:54.575Z,2.28
2018-12-25T01:03:23.662Z,2.27
2018-12-25T01:05:52.714Z,2.27
2018-12-25T01:08:21.772Z,2.28
2018-12-25T01:10:50.878Z,2.29
2018-12-25T01:13:19.937Z,2.30
2018-12-25T01:15:48.998Z,2.30
2018-12-25T01:18:18.082Z,2.32
2018-12-25T01:20:47.145Z,2.33
2018-12-25T01:23:16.213Z,2.34
2018-12-25T01:25:45.305Z,2.33
2018-12-25T01:28:14.375Z,2.34
2018-12-25T01:30:43.436Z,2.34
2018-12-25T01:33:12.559Z,2.34
2018-12-25T01:35:41.622Z,2.33
2018-12-25T01:38:23.263Z,2.34
2018-12-25T01:40:52.314Z,2.34
2018-12-25T01:43:21.374Z,2.35
2018-12-25T01:45:50.459Z,2.37
2018-12-25T01:48:19.528Z,2.38
2018-12-25T01:50:48.593Z,2.38
2018-12-25T01:53:17.709Z,2.38
2018-12-25T01:55:46.785Z,2.40
2018-12-25T01:58:15.847Z,2.40
2018-12-25T02:00:44.959Z,2.41
2018-12-25T02:03:14.022Z,2.41
2018-12-25T02:05:43.098Z,2.40
2018-12-25T02:08:12.189Z,2.39
2018-12-25T02:10:41.246Z,2.36
2018-12-25T02:13:10.315Z,2.34
2018-12-25T02:15:39.433Z,2.33
2018-12-25T02:18:08.502Z,2.30
2018-12-25T02:20:37.561Z,2.27
2018-12-25T02:23:06.875Z,2.24
2018-12-25T02:25:35.933Z,2.22
2018-12-25T02:28:04.997Z,2.18
2018-12-25T02:30:34.080Z,2.15
2018-12-25T02:33:03.149Z,2.12
2018-12-25T02:35:32.214Z,2.12
2018-12-25T02:38:01.546Z,2.15
2018-12-25T02:40:30.599Z,2.18
2018-12-25T02:42:59.671Z,2.21
2018-12-25T02:45:28.769Z,2.23
2018-12-25T02:47:57.827Z,2.24
2018-12-25T02:50:26.880Z,2.24
2018-12-25T02:52:55.955Z,2.24
2018-12-25T02:55:25.051Z,2.26
2018-12-25T02:57:54.100Z,2.29
2018-12-25T03:00:23.201Z,2.32
2018-12-25T03:02:52.406Z,2.35
2018-12-25T03:05:21.330Z,2.36
2018-12-25T03:07:50.418Z,2.37
2018-12-25T03:10:19.485Z,2.41
2018-12-25T03:12:48.546Z,2.42
2018-12-25T03:15:17.620Z,2.44
2018-12-25T03:17:46.682Z,2.47
2018-12-25T03:20:15.748Z,2.48
2018-12-25T03:22:44.896Z,2.49
2018-12-25T03:25:13.957Z,2.49
2018-12-25T03:27:43.015Z,2.51
2018-12-25T03:30:12.102Z,2.54
2018-12-25T03:32:41.169Z,2.53
2018-12-25T03:35:10.226Z,2.52
2018-12-25T03:37:39.310Z,2.52
2018-12-25T03:40:08.370Z,2.52
2018-12-25T03:42:37.424Z,2.54
2018-12-25T03:45:06.507Z,2.55
2018-12-25T03:47:35.574Z,2.56
2018-12-25T03:50:10.448Z,2.57
2018-12-25T03:52:33.730Z,2.55
2018-12-25T03:55:02.756Z,2.55
2018-12-25T03:57:36.232Z,2.56
2018-12-25T04:00:05.296Z,2.58
2018-12-25T04:02:34.370Z,2.58
2018-12-25T04:05:03.669Z,2.60
2018-12-25T04:07:32.754Z,2.61
2018-12-25T04:10:01.794Z,2.61
2018-12-25T04:12:30.883Z,2.61
2018-12-25T04:14:59.949Z,2.60
2018-12-25T04:17:29.062Z,2.61
2018-12-25T04:19:58.138Z,2.58
2018-12-25T04:22:27.192Z,2.58
2018-12-25T04:24:56.242Z,2.57
2018-12-25T04:27:29.120Z,2.60
2018-12-25T04:29:58.193Z,2.61
2018-12-25T04:32:27.237Z,2.61
2018-12-25T04:34:56.335Z,2.62
2018-12-25T04:37:30.226Z,2.64
2018-12-25T04:39:59.303Z,2.65
2018-12-25T04:42:28.359Z,2.65
2018-12-25T04:44:57.410Z,2.67
2018-12-25T04:47:26.841Z,2.69
2018-12-25T04:49:55.894Z,2.70
2018-12-25T04:52:24.942Z,2.70
2018-12-25T04:54:54.012Z,2.71
2018-12-25T04:57:23.075Z,2.72
2018-12-25T04:59:52.127Z,2.73
2018-12-25T05:02:21.205Z,2.76
2018-12-25T05:04:50.263Z,2.78
2018-12-25T05:07:19.319Z,2.79
2018-12-25T05:09:48.409Z,2.80
2018-12-25T05:12:17.473Z,2.81
2018-12-25T05:14:46.537Z,2.82
2018-12-25T05:17:29.079Z,2.83
2018-12-25T05:19:58.123Z,2.84
2018-12-25T05:22:27.175Z,2.84
2018-12-25T05:24:56.330Z,2.85
2018-12-25T05:27:25.382Z,2.85
2018-12-25T05:29:54.449Z,2.87
2018-12-25T05:32:23.519Z,2.88
2018-12-25T05:34:52.571Z,2.91
2018-12-25T05:37:21.619Z,2.93
2018-12-25T05:39:50.694Z,2.94
2018-12-25T05:42:19.734Z,2.96
2018-12-25T05:44:48.787Z,2.97
2018-12-25T05:47:34.697Z,2.98
2018-12-25T05:50:03.745Z,2.98
2018-12-25T05:52:32.786Z,2.99
2018-12-25T05:55:01.883Z,3.01
2018-12-25T05:57:30.928Z,3.03
2018-12-25T05:59:59.986Z,3.03
2018-12-25T06:02:29.062Z,3.06
2018-12-25T06:04:58.118Z,3.06
2018-12-25T06:07:27.167Z,3.09
2018-12-25T06:09:56.485Z,3.11
2018-12-25T06:12:25.554Z,3.12
2018-12-25T06:14:54.606Z,3.14
2018-12-25T06:17:23.675Z,3.16
2018-12-25T06:19:52.741Z,3.19
2018-12-25T06:22:21.783Z,3.20
2018-12-25T06:24:50.879Z,3.22
2018-12-25T06:27:19.934Z,3.25
2018-12-25T06:29:48.996Z,3.26
2018-12-25T06:32:18.092Z,3.27
2018-12-25T06:34:47.150Z,3.30
2018-12-25T06:37:16.204Z,3.30
2018-12-25T06:39:45.290Z,3.33
2018-12-25T06:42:14.371Z,3.35
2018-12-25T06:44:43.439Z,3.36
2018-12-25T06:47:12.515Z,3.37
2018-12-25T06:49:41.575Z,3.39
2018-12-25T06:52:10.631Z,3.42
2018-12-25T06:54:39.741Z,3.43
2018-12-25T06:57:08.790Z,3.44
2018-12-25T06:59:37.856Z,3.43
2018-12-25T07:02:06.948Z,3.45
2018-12-25T07:04:36.002Z,3.47
2018-12-25T07:07:05.082Z,3.49
2018-12-25T07:09:34.239Z,3.51
2018-12-25T07:12:03.234Z,3.53
2018-12-25T07:14:32.287Z,3.56
2018-12-25T07:17:01.387Z,3.57
2018-12-25T07:19:30.448Z,3.57
2018-12-25T07:21:59.511Z,3.60
2018-12-25T07:24:28.616Z,3.60
2018-12-25T07:26:57.679Z,3.62
2018-12-25T07:29:26.735Z,3.61
2018-12-25T07:31:55.825Z,3.63
2018-12-25T07:34:24.891Z,3.64
2018-12-25T07:37:00.689Z,3.66
2018-12-25T07:39:29.753Z,3.69
2018-12-25T07:41:58.813Z,3.71
2018-12-25T07:44:27.905Z,3.73
2018-12-25T07:46:56.955Z,3.76
2018-12-25T07:49:26.031Z,3.77
2018-12-25T07:51:55.219Z,3.79
2018-12-25T07:54:24.288Z,3.81
2018-12-25T07:56:53.338Z,3.85
2018-12-25T07:59:22.452Z,3.87
2018-12-25T08:01:51.513Z,3.89
2018-12-25T08:04:20.567Z,3.90
2018-12-25T08:06:49.655Z,3.92
2018-12-25T08:09:18.719Z,3.94
2018-12-25T08:11:47.787Z,3.97
2018-12-25T08:14:17.121Z,4.01
2018-12-25T08:16:46.179Z,4.05
2018-12-25T08:19:15.228Z,4.09
2018-12-25T08:21:44.493Z,4.14
2018-12-25T08:24:13.562Z,4.15
2018-12-25T08:26:42.611Z,4.20
2018-12-25T08:29:11.723Z,4.22
2018-12-25T08:31:41.200Z,4.24
2018-12-25T08:34:10.606Z,4.26
2018-12-25T08:36:39.687Z,4.28
2018-12-25T08:39:08.750Z,4.31
2018-12-25T08:41:37.805Z,4.32
2018-12-25T08:44:06.908Z,4.34
2018-12-25T08:46:42.493Z,4.38
2018-12-25T08:49:11.571Z,4.38
2018-12-25T08:51:40.617Z,4.43
2018-12-25T08:54:09.686Z,4.44
2018-12-25T08:56:38.782Z,4.47
2018-12-25T09:02:11.974Z,4.56
2018-12-25T09:04:41.036Z,4.59
2018-12-25T09:07:10.084Z,4.62
2018-12-25T09:09:39.251Z,4.65
2018-12-25T09:12:08.325Z,4.67
2018-12-25T09:14:37.373Z,4.70
2018-12-25T09:17:06.463Z,4.73
2018-12-25T09:19:35.524Z,4.76
2018-12-25T09:22:04.588Z,4.79
2018-12-25T09:24:33.709Z,4.81
2018-12-25T09:27:03.785Z,4.83
2018-12-25T09:29:32.851Z,4.88
2018-12-25T09:32:01.947Z,4.91
2018-12-25T09:34:31.023Z,4.93
2018-12-25T09:37:00.082Z,4.96
2018-12-25T09:39:29.183Z,4.99
2018-12-25T09:41:58.230Z,5.00
2018-12-25T09:44:27.298Z,5.02
2018-12-25T09:46:56.412Z,5.05
2018-12-25T09:49:25.470Z,5.09
2018-12-25T09:51:54.853Z,5.11
2018-12-25T09:54:23.630Z,5.15
2018-12-25T09:56:52.688Z,5.16
2018-12-25T09:59:21.751Z,5.21
2018-12-25T10:01:50.849Z,5.26
2018-12-25T10:04:20.272Z,5.30
2018-12-25T10:06:49.319Z,5.33
2018-12-25T10:09:18.722Z,5.38
2018-12-25T10:11:47.775Z,5.42
2018-12-25T10:14:16.841Z,5.45
2018-12-25T10:16:56.550Z,5.46
2018-12-25T10:19:25.613Z,5.47
2018-12-25T10:22:02.771Z,5.47
2018-12-25T10:24:23.816Z,5.49
2018-12-25T10:26:52.883Z,5.51
2018-12-25T10:29:21.935Z,5.49
2018-12-25T10:31:51.036Z,5.52
2018-12-25T10:34:20.103Z,5.54
2018-12-25T10:37:12.152Z,5.55
2018-12-25T10:39:41.221Z,5.59
2018-12-25T10:42:10.287Z,5.59
2018-12-25T10:44:39.395Z,5.61
2018-12-25T10:47:08.460Z,5.61
2018-12-25T10:49:37.527Z,5.62
2018-12-25T10:52:11.447Z,5.65
2018-12-25T10:54:35.676Z,5.67
2018-12-25T10:57:04.744Z,5.70
2018-12-25T10:59:33.830Z,5.74
2018-12-25T11:02:02.895Z,5.75
2018-12-25T11:04:31.952Z,5.79
2018-12-25T11:07:01.059Z,5.82
2018-12-25T11:09:30.116Z,5.81
2018-12-25T11:11:59.171Z,5.84
2018-12-25T11:14:28.267Z,5.87
2018-12-25T11:16:57.334Z,5.88
2018-12-25T11:19:26.413Z,5.90
2018-12-25T11:21:55.502Z,5.92
2018-12-25T11:24:24.562Z,5.91
2018-12-25T11:26:53.650Z,5.92
2018-12-25T11:29:22.748Z,5.91
2018-12-25T11:31:51.815Z,5.90
2018-12-25T11:34:20.871Z,5.91
2018-12-25T11:36:49.996Z,5.91
2018-12-25T11:39:19.059Z,5.95
2018-12-25T11:41:48.127Z,5.97
2018-12-25T11:44:17.215Z,6.01
2018-12-25T11:46:46.275Z,6.02
2018-12-25T11:49:15.336Z,6.04
2018-12-25T11:51:44.484Z,6.08
2018-12-25T11:54:13.531Z,6.13
2018-12-25T11:56:50.200Z,6.15
2018-12-25T11:59:19.259Z,6.20
2018-12-25T12:01:48.333Z,6.21
2018-12-25T12:04:17.427Z,6.24
2018-12-25T12:06:46.495Z,6.26
2018-12-25T12:09:15.563Z,6.28
2018-12-25T12:11:44.666Z,6.28
2018-12-25T12:14:13.749Z,6.29
2018-12-25T12:16:44.697Z,6.30
2018-12-25T12:19:14.129Z,6.30
2018-12-25T12:21:43.197Z,6.33
2018-12-25T12:24:12.268Z,6.34
2018-12-25T12:26:41.364Z,6.34
2018-12-25T12:29:10.436Z,6.37
2018-12-25T12:31:39.500Z,6.40
2018-12-25T12:34:08.627Z,6.43
2018-12-25T12:36:37.695Z,6.46
2018-12-25T12:39:06.825Z,6.46
2018-12-25T12:41:35.853Z,6.45
2018-12-25T12:44:04.917Z,6.45
2018-12-25T12:46:33.983Z,6.45
2018-12-25T12:49:03.067Z,6.46
2018-12-25T12:51:32.133Z,6.46
2018-12-25T12:54:01.195Z,6.46
2018-12-25T12:56:30.321Z,6.45
2018-12-25T12:58:59.388Z,6.45
2018-12-25T13:01:28.456Z,6.45
2018-12-25T13:03:57.550Z,6.46
2018-12-25T13:06:26.610Z,6.46
2018-12-25T13:08:55.683Z,6.46
2018-12-25T13:11:24.775Z,6.47
2018-12-25T13:13:53.857Z,6.47
2018-12-25T13:16:22.928Z,6.48
2018-12-25T13:18:52.036Z,6.49
2018-12-25T13:21:21.087Z,6.50
2018-12-25T13:23:50.143Z,6.52
2018-12-25T13:26:19.223Z,6.54
2018-12-25T13:28:48.280Z,6.54
2018-12-25T13:31:17.375Z,6.55
2018-12-25T13:33:46.462Z,6.55
2018-12-25T13:36:17.986Z,6.56
2018-12-25T13:38:47.850Z,6.58
2018-12-25T13:41:17.547Z,6.59
2018-12-25T13:43:47.382Z,6.58
2018-12-25T13:46:17.045Z,6.59
2018-12-25T13:48:46.118Z,6.60
2018-12-25T13:51:15.162Z,6.61
2018-12-25T13:53:44.251Z,6.61
2018-12-25T13:56:13.314Z,6.61
2018-12-25T13:58:42.376Z,6.62
2018-12-25T14:01:11.498Z,6.59
2018-12-25T14:03:40.552Z,6.58
2018-12-25T14:06:09.611Z,6.60
2018-12-25T14:08:38.700Z,6.59
2018-12-25T14:11:07.762Z,6.60
2018-12-25T14:13:36.823Z,6.60
2018-12-25T14:16:05.923Z,6.62
2018-12-25T14:18:34.993Z,6.62
2018-12-25T14:21:04.058Z,6.63
2018-12-25T14:23:33.240Z,6.61
2018-12-25T14:26:02.314Z,6.60
2018-12-25T14:28:31.372Z,6.60
2018-12-25T14:31:00.465Z,6.62
2018-12-25T14:33:29.561Z,6.61
2018-12-25T14:35:58.623Z,6.61
2018-12-25T14:38:27.712Z,6.61
2018-12-25T14:40:56.790Z,6.61
2018-12-25T14:43:25.874Z,6.61
2018-12-25T14:45:55.020Z,6.59
2018-12-25T14:48:24.083Z,6.61
2018-12-25T14:50:53.143Z,6.60
2018-12-25T14:53:22.223Z,6.58
2018-12-25T14:55:51.279Z,6.59
2018-12-25T14:58:20.345Z,6.58
2018-12-25T15:00:49.528Z,6.58
2018-12-25T15:03:18.521Z,6.56
2018-12-25T15:05:47.574Z,6.58
2018-12-25T15:08:16.943Z,6.58
2018-12-25T15:10:46.003Z,6.58
2018-12-25T15:13:15.066Z,6.59
2018-12-25T15:15:44.150Z,6.59
2018-12-25T15:18:13.207Z,6.59
2018-12-25T15:20:42.263Z,6.61
2018-12-25T15:23:11.337Z,6.61
2018-12-25T15:25:40.391Z,6.61
2018-12-25T15:28:09.455Z,6.59
2018-12-25T15:30:38.563Z,6.58
2018-12-25T15:33:07.629Z,6.54
2018-12-25T15:35:36.695Z,6.54
2018-12-25T15:38:05.786Z,6.53
2018-12-25T15:40:34.852Z,6.53
2018-12-25T15:43:03.940Z,6.56
2018-12-25T15:45:33.034Z,6.56
2018-12-25T15:48:02.093Z,6.57
2018-12-25T15:50:31.173Z,6.55
2018-12-25T15:53:00.302Z,6.56
2018-12-25T15:55:29.371Z,6.55
2018-12-25T15:57:59.476Z,6.56
2018-12-25T16:00:28.564Z,6.53
2018-12-25T16:02:57.648Z,6.51
2018-12-25T16:05:26.727Z,6.50
2018-12-25T16:07:55.815Z,6.49
2018-12-25T16:10:24.881Z,6.50
2018-12-25T16:12:53.935Z,6.48
2018-12-25T16:15:23.166Z,6.49
2018-12-25T16:17:52.227Z,6.49
2018-12-25T16:20:21.290Z,6.48
2018-12-25T16:22:52.364Z,6.47
2018-12-25T16:25:19.414Z,6.49
2018-12-25T16:27:48.475Z,6.52
2018-12-25T16:30:17.565Z,6.51
2018-12-25T16:32:46.629Z,6.51
2018-12-25T16:35:15.683Z,6.52
2018-12-25T16:37:44.796Z,6.52
2018-12-25T16:40:13.856Z,6.51
2018-12-25T16:42:42.913Z,6.53
2018-12-25T16:45:11.997Z,6.53
2018-12-25T16:47:41.056Z,6.54
2018-12-25T16:50:10.115Z,6.52
2018-12-25T16:52:39.211Z,6.53
2018-12-25T16:55:08.272Z,6.55
2018-12-25T16:57:37.347Z,6.56
2018-12-25T17:00:06.433Z,6.55
2018-12-25T17:02:35.486Z,6.54
2018-12-25T17:05:04.536Z,6.57
2018-12-25T17:07:33.620Z,6.57
2018-12-25T17:10:02.690Z,6.58
2018-12-25T17:12:31.761Z,6.59
2018-12-25T17:15:00.853Z,6.58
2018-12-25T17:17:29.909Z,6.59
2018-12-25T17:19:58.957Z,6.58
2018-12-25T17:22:28.079Z,6.61
2018-12-25T17:24:57.134Z,6.62
2018-12-25T17:27:26.208Z,6.62
2018-12-25T17:29:55.302Z,6.64
2018-12-25T17:32:24.356Z,6.64
2018-12-25T17:34:53.423Z,6.65
2018-12-25T17:37:22.520Z,6.65
2018-12-25T17:39:51.596Z,6.66
2018-12-25T17:42:20.656Z,6.66
2018-12-25T17:44:49.783Z,6.65
2018-12-25T17:47:18.847Z,6.66
2018-12-25T17:49:47.911Z,6.67
2018-12-25T17:52:17.057Z,6.68
2018-12-25T17:54:46.103Z,6.69
2018-12-25T17:57:20.932Z,6.69
2018-12-25T17:59:49.977Z,6.71
2018-12-25T18:02:19.028Z,6.72
2018-12-25T18:04:48.130Z,6.74
2018-12-25T18:07:17.189Z,6.73
2018-12-25T18:09:46.250Z,6.73
2018-12-25T18:12:15.346Z,6.70
2018-12-25T18:14:44.420Z,6.74
2018-12-25T18:17:18.787Z,6.73
2018-12-25T18:19:44.582Z,6.76
2018-12-25T18:22:13.654Z,6.77
2018-12-25T18:24:42.718Z,6.77
2018-12-25T18:27:12.062Z,6.80
2018-12-25T18:29:41.132Z,6.82
2018-12-25T18:32:10.210Z,6.83
2018-12-25T18:34:39.305Z,6.84
2018-12-25T18:37:08.378Z,6.86
2018-12-25T18:39:37.444Z,6.86
2018-12-25T18:42:06.525Z,6.85
2018-12-25T18:44:35.576Z,6.87
2018-12-25T18:47:08.173Z,6.88
2018-12-25T18:49:37.237Z,6.89
2018-12-25T18:52:06.302Z,6.91
2018-12-25T18:54:35.409Z,6.91
2018-12-25T18:57:04.491Z,6.92
2018-12-25T18:59:33.548Z,6.93
2018-12-25T19:02:02.646Z,6.92
2018-12-25T19:04:31.744Z,6.93
2018-12-25T19:07:00.796Z,6.94
2018-12-25T19:09:29.916Z,6.98
2018-12-25T19:11:58.972Z,6.98
2018-12-25T19:14:28.045Z,6.97
2018-12-25T19:16:57.138Z,6.97
2018-12-25T19:19:26.212Z,6.98
2018-12-25T19:21:55.280Z,7.00
2018-12-25T19:24:24.391Z,7.01
2018-12-25T19:26:53.450Z,7.01
2018-12-25T19:29:22.514Z,7.03
2018-12-25T19:31:51.614Z,7.04
2018-12-25T19:34:20.693Z,7.04
2018-12-25T19:36:55.703Z,7.02
2018-12-25T19:39:24.756Z,7.03
2018-12-25T19:41:53.810Z,7.04
2018-12-25T19:44:22.892Z,7.04
2018-12-25T19:46:51.948Z,7.04
2018-12-25T19:49:21.001Z,7.04
2018-12-25T19:51:50.104Z,7.05
2018-12-25T19:54:19.173Z,7.06
2018-12-25T19:56:48.233Z,7.04
2018-12-25T19:59:17.321Z,7.05
2018-12-25T20:01:46.367Z,7.06
2018-12-25T20:04:18.990Z,7.06
2018-12-25T20:06:48.051Z,7.06
2018-12-25T20:09:19.028Z,7.08
2018-12-25T20:11:53.809Z,7.09
2018-12-25T20:14:27.521Z,7.10
2018-12-25T20:17:07.181Z,7.08
2018-12-25T20:19:38.899Z,7.10
2018-12-25T20:22:12.508Z,7.12
2018-12-25T20:24:52.666Z,7.10
2018-12-25T20:27:25.854Z,7.12
2018-12-25T20:29:58.498Z,7.11
2018-12-25T20:32:30.425Z,7.10
2018-12-25T20:35:08.313Z,7.11
2018-12-25T20:37:49.088Z,7.12
2018-12-25T20:40:18.188Z,7.12
2018-12-25T20:42:50.412Z,7.14
2018-12-25T20:45:29.326Z,7.11
2018-12-25T20:48:16.662Z,7.13
2018-12-25T20:50:52.295Z,7.14
2018-12-25T20:53:25.185Z,7.14
2018-12-25T20:56:08.864Z,7.16
2018-12-25T20:58:46.587Z,7.16
2018-12-25T21:01:26.476Z,7.19
2018-12-25T21:03:56.484Z,7.19
2018-12-25T21:06:31.415Z,7.19
2018-12-25T21:09:10.056Z,7.17
2018-12-25T21:11:42.058Z,7.18
2018-12-25T21:14:16.197Z,7.19
2018-12-25T21:16:51.860Z,7.23
2018-12-25T21:19:37.258Z,7.27
2018-12-25T21:22:08.114Z,7.26
2018-12-25T21:24:49.019Z,7.27
2018-12-25T21:27:39.383Z,7.25
2018-12-25T21:30:08.670Z,7.25
2018-12-25T21:32:37.748Z,7.27
2018-12-25T21:35:08.642Z,7.29
2018-12-25T21:37:37.723Z,7.28
2018-12-25T21:40:06.771Z,7.31
2018-12-25T21:42:35.814Z,7.30
2018-12-25T21:45:04.904Z,7.27
2018-12-25T21:47:33.968Z,7.29
2018-12-25T21:50:03.035Z,7.29
2018-12-25T21:52:32.140Z,7.28
2018-12-25T21:55:01.195Z,7.29
2018-12-25T21:57:30.259Z,7.31
2018-12-25T21:59:59.388Z,7.31
2018-12-25T22:02:28.497Z,7.30
2018-12-25T22:04:57.559Z,7.30
2018-12-25T22:10:25.575Z,7.28
2018-12-25T22:12:54.657Z,7.29
2018-12-25T22:15:23.710Z,7.29
2018-12-25T22:17:52.775Z,7.28
2018-12-25T22:20:21.848Z,7.31
2018-12-25T22:22:50.903Z,7.28
2018-12-25T22:25:26.899Z,7.26
2018-12-25T22:27:49.063Z,7.28
2018-12-25T22:30:18.218Z,7.28
2018-12-25T22:32:47.270Z,7.28
2018-12-25T22:35:16.365Z,7.31
2018-12-25T22:37:45.421Z,7.30
2018-12-25T22:40:14.475Z,7.29
2018-12-25T22:42:43.547Z,7.27
2018-12-25T22:45:12.597Z,7.29
2018-12-25T22:47:41.636Z,7.29
2018-12-25T22:50:10.808Z,7.28
2018-12-25T22:52:39.866Z,7.30
2018-12-25T22:55:08.912Z,7.30
2018-12-25T22:57:53.081Z,7.29
2018-12-25T23:00:22.129Z,7.28
2018-12-25T23:02:51.187Z,7.29
2018-12-25T23:05:20.681Z,7.25
2018-12-25T23:07:49.729Z,7.26
2018-12-25T23:10:18.783Z,7.30
2018-12-25T23:12:47.893Z,7.30
2018-12-25T23:15:16.945Z,7.31
2018-12-25T23:17:46.003Z,7.33
2018-12-25T23:20:15.164Z,7.32
2018-12-25T23:22:44.214Z,7.33
2018-12-25T23:25:13.275Z,7.34
2018-12-25T23:27:42.371Z,7.33
2018-12-25T23:30:11.407Z,7.32
2018-12-25T23:32:40.468Z,7.34
2018-12-25T23:35:09.701Z,7.32
2018-12-25T23:37:38.614Z,7.28
2018-12-25T23:40:07.670Z,7.28
2018-12-25T23:42:36.747Z,7.31
2018-12-25T23:45:05.789Z,7.33
2018-12-25T23:47:34.842Z,7.32
2018-12-25T23:50:03.963Z,7.30
2018-12-25T23:52:33.074Z,7.30
2018-12-25T23:55:02.121Z,7.32
2018-12-25T23:57:31.218Z,7.31
